sensor_id;sensor_type;location;lat;lon;timestamp;pressure;altitude;pressure_sealevel;temperature;humidity
41898;BME280;27576;53.366;-1.498;2024-01-25T00:02:15;101340.94;;;4.27;100.00
41898;BME280;27576;53.366;-1.498;2024-01-25T00:04:41;101366.53;;;4.41;100.00
41898;BME280;27576;53.366;-1.498;2024-01-25T00:07:08;101317.59;;;4.06;100.00
41898;BME280;27576;53.366;-1.498;2024-01-25T00:09:33;101323.50;;;4.05;100.00
41898;BME280;27576;53.366;-1.498;2024-01-25T00:11:58;101382.38;;;4.34;100.00
41898;BME280;27576;53.366;-1.498;2024-01-25T00:14:24;101390.00;;;4.33;100.00
41898;BME280;27576;53.366;-1.498;2024-01-25T00:16:49;101357.88;;;4.08;100.00
41898;BME280;27576;53.366;-1.498;2024-01-25T00:19:14;101394.31;;;4.17;100.00
41898;BME280;27576;53.366;-1.498;2024-01-25T00:21:43;101395.44;;;4.23;100.00
41898;BME280;27576;53.366;-1.498;2024-01-25T00:24:12;101385.09;;;4.21;100.00
41898;BME280;27576;53.366;-1.498;2024-01-25T00:26:37;101379.63;;;4.15;100.00
41898;BME280;27576;53.366;-1.498;2024-01-25T00:29:03;101366.22;;;4.04;100.00
41898;BME280;27576;53.366;-1.498;2024-01-25T00:31:29;101346.09;;;3.96;100.00
41898;BME280;27576;53.366;-1.498;2024-01-25T00:33:55;101307.59;;;3.79;100.00
41898;BME280;27576;53.366;-1.498;2024-01-25T00:36:21;101364.88;;;4.11;100.00
41898;BME280;27576;53.366;-1.498;2024-01-25T00:38:47;101369.66;;;4.05;100.00
41898;BME280;27576;53.366;-1.498;2024-01-25T00:41:18;101368.94;;;4.07;100.00
41898;BME280;27576;53.366;-1.498;2024-01-25T00:43:44;101357.31;;;3.98;100.00
41898;BME280;27576;53.366;-1.498;2024-01-25T00:46:10;101317.22;;;3.83;100.00
41898;BME280;27576;53.366;-1.498;2024-01-25T00:48:36;101321.88;;;3.90;100.00
41898;BME280;27576;53.366;-1.498;2024-01-25T00:51:03;101328.25;;;3.97;100.00
41898;BME280;27576;53.366;-1.498;2024-01-25T00:53:32;101332.16;;;4.07;100.00
41898;BME280;27576;53.366;-1.498;2024-01-25T00:55:58;101305.88;;;3.94;100.00
41898;BME280;27576;53.366;-1.498;2024-01-25T00:58:24;101293.75;;;3.92;100.00
41898;BME280;27576;53.366;-1.498;2024-01-25T01:00:49;101348.84;;;4.15;100.00
41898;BME280;27576;53.366;-1.498;2024-01-25T01:03:20;101317.06;;;3.97;100.00
41898;BME280;27576;53.366;-1.498;2024-01-25T01:05:46;101326.00;;;4.03;100.00
41898;BME280;27576;53.366;-1.498;2024-01-25T01:08:12;101296.06;;;3.87;100.00
41898;BME280;27576;53.366;-1.498;2024-01-25T01:10:37;101288.38;;;3.87;100.00
41898;BME280;27576;53.366;-1.498;2024-01-25T01:13:03;101268.69;;;3.86;100.00
41898;BME280;27576;53.366;-1.498;2024-01-25T01:15:28;101281.97;;;3.96;100.00
41898;BME280;27576;53.366;-1.498;2024-01-25T01:17:54;101280.28;;;3.96;100.00
41898;BME280;27576;53.366;-1.498;2024-01-25T01:20:19;101289.84;;;3.99;100.00
41898;BME280;27576;53.366;-1.498;2024-01-25T01:22:45;101266.94;;;3.85;100.00
41898;BME280;27576;53.366;-1.498;2024-01-25T01:25:10;101259.88;;;3.81;100.00
41898;BME280;27576;53.366;-1.498;2024-01-25T01:27:35;101271.25;;;3.86;100.00
41898;BME280;27576;53.366;-1.498;2024-01-25T01:30:01;101272.94;;;3.86;100.00
41898;BME280;27576;53.366;-1.498;2024-01-25T01:32:27;101308.44;;;4.11;100.00
41898;BME280;27576;53.366;-1.498;2024-01-25T01:34:52;101302.19;;;4.06;100.00
41898;BME280;27576;53.366;-1.498;2024-01-25T01:37:17;101310.13;;;4.10;100.00
41898;BME280;27576;53.366;-1.498;2024-01-25T01:39:43;101264.84;;;3.94;100.00
41898;BME280;27576;53.366;-1.498;2024-01-25T01:42:08;101248.34;;;3.89;100.00
41898;BME280;27576;53.366;-1.498;2024-01-25T01:44:34;101270.22;;;3.99;100.00
41898;BME280;27576;53.366;-1.498;2024-01-25T01:46:59;101224.34;;;3.89;100.00
41898;BME280;27576;53.366;-1.498;2024-01-25T01:49:25;101279.66;;;4.16;100.00
41898;BME280;27576;53.366;-1.498;2024-01-25T01:51:51;101284.09;;;4.19;100.00
41898;BME280;27576;53.366;-1.498;2024-01-25T01:54:17;101259.06;;;3.99;100.00
41898;BME280;27576;53.366;-1.498;2024-01-25T01:56:43;101287.28;;;4.15;100.00
41898;BME280;27576;53.366;-1.498;2024-01-25T01:59:10;101279.75;;;4.18;100.00
41898;BME280;27576;53.366;-1.498;2024-01-25T02:01:38;101267.34;;;4.09;100.00
41898;BME280;27576;53.366;-1.498;2024-01-25T02:04:07;101293.94;;;4.28;100.00
41898;BME280;27576;53.366;-1.498;2024-01-25T02:06:33;101270.63;;;4.23;100.00
41898;BME280;27576;53.366;-1.498;2024-01-25T02:08:58;101218.34;;;3.88;100.00
41898;BME280;27576;53.366;-1.498;2024-01-25T02:11:27;101202.66;;;3.82;100.00
41898;BME280;27576;53.366;-1.498;2024-01-25T02:13:53;101237.44;;;4.10;100.00
41898;BME280;27576;53.366;-1.498;2024-01-25T02:16:18;101205.16;;;3.97;100.00
41898;BME280;27576;53.366;-1.498;2024-01-25T02:18:45;101247.88;;;4.13;100.00
41898;BME280;27576;53.366;-1.498;2024-01-25T02:21:11;101219.50;;;3.93;100.00
41898;BME280;27576;53.366;-1.498;2024-01-25T02:23:37;101252.66;;;4.07;100.00
41898;BME280;27576;53.366;-1.498;2024-01-25T02:26:02;101223.41;;;3.87;100.00
41898;BME280;27576;53.366;-1.498;2024-01-25T02:28:27;101225.16;;;3.88;100.00
41898;BME280;27576;53.366;-1.498;2024-01-25T02:30:53;101278.66;;;4.13;100.00
41898;BME280;27576;53.366;-1.498;2024-01-25T02:33:18;101242.66;;;3.95;100.00
41898;BME280;27576;53.366;-1.498;2024-01-25T02:35:44;101245.84;;;3.91;100.00
41898;BME280;27576;53.366;-1.498;2024-01-25T02:38:09;101165.78;;;3.48;100.00
41898;BME280;27576;53.366;-1.498;2024-01-25T02:40:35;101225.56;;;3.79;100.00
41898;BME280;27576;53.366;-1.498;2024-01-25T02:43:00;101232.44;;;3.80;100.00
41898;BME280;27576;53.366;-1.498;2024-01-25T02:45:25;101265.97;;;4.00;100.00
41898;BME280;27576;53.366;-1.498;2024-01-25T02:47:51;101238.44;;;3.81;100.00
41898;BME280;27576;53.366;-1.498;2024-01-25T02:50:16;101224.75;;;3.80;100.00
41898;BME280;27576;53.366;-1.498;2024-01-25T02:52:42;101214.59;;;3.82;100.00
41898;BME280;27576;53.366;-1.498;2024-01-25T02:55:07;101211.06;;;3.80;100.00
41898;BME280;27576;53.366;-1.498;2024-01-25T02:57:33;101201.50;;;3.77;100.00
41898;BME280;27576;53.366;-1.498;2024-01-25T02:59:58;101240.88;;;3.94;100.00
41898;BME280;27576;53.366;-1.498;2024-01-25T03:02:24;101235.75;;;3.94;100.00
41898;BME280;27576;53.366;-1.498;2024-01-25T03:04:49;101208.75;;;3.84;100.00
41898;BME280;27576;53.366;-1.498;2024-01-25T03:07:15;101216.94;;;3.93;100.00
41898;BME280;27576;53.366;-1.498;2024-01-25T03:09:40;101203.22;;;3.93;100.00
41898;BME280;27576;53.366;-1.498;2024-01-25T03:12:06;101201.44;;;3.92;100.00
41898;BME280;27576;53.366;-1.498;2024-01-25T03:14:31;101186.63;;;3.86;100.00
41898;BME280;27576;53.366;-1.498;2024-01-25T03:16:58;101192.81;;;3.90;100.00
41898;BME280;27576;53.366;-1.498;2024-01-25T03:19:25;101153.97;;;3.66;100.00
41898;BME280;27576;53.366;-1.498;2024-01-25T03:21:51;101205.69;;;3.91;100.00
41898;BME280;27576;53.366;-1.498;2024-01-25T03:24:16;101177.66;;;3.78;100.00
41898;BME280;27576;53.366;-1.498;2024-01-25T03:26:42;101152.28;;;3.66;100.00
41898;BME280;27576;53.366;-1.498;2024-01-25T03:29:07;101135.91;;;3.64;100.00
41898;BME280;27576;53.366;-1.498;2024-01-25T03:31:32;101152.91;;;3.79;100.00
41898;BME280;27576;53.366;-1.498;2024-01-25T03:33:58;101168.94;;;3.91;100.00
41898;BME280;27576;53.366;-1.498;2024-01-25T03:36:24;101139.06;;;3.75;100.00
41898;BME280;27576;53.366;-1.498;2024-01-25T03:38:49;101145.13;;;3.77;100.00
41898;BME280;27576;53.366;-1.498;2024-01-25T03:41:14;101164.38;;;3.85;100.00
41898;BME280;27576;53.366;-1.498;2024-01-25T03:43:40;101149.13;;;3.72;100.00
41898;BME280;27576;53.366;-1.498;2024-01-25T03:46:05;101186.00;;;3.90;100.00
41898;BME280;27576;53.366;-1.498;2024-01-25T03:48:32;101199.13;;;3.97;100.00
41898;BME280;27576;53.366;-1.498;2024-01-25T03:50:58;101174.69;;;3.87;100.00
41898;BME280;27576;53.366;-1.498;2024-01-25T03:53:23;101142.50;;;3.76;100.00
41898;BME280;27576;53.366;-1.498;2024-01-25T03:55:49;101173.47;;;3.97;100.00
41898;BME280;27576;53.366;-1.498;2024-01-25T03:58:17;101161.41;;;3.94;100.00
41898;BME280;27576;53.366;-1.498;2024-01-25T04:00:46;101119.75;;;3.82;100.00
41898;BME280;27576;53.366;-1.498;2024-01-25T04:03:11;101110.22;;;3.79;100.00
41898;BME280;27576;53.366;-1.498;2024-01-25T04:05:37;101139.66;;;4.04;100.00
41898;BME280;27576;53.366;-1.498;2024-01-25T04:08:05;101151.81;;;4.08;100.00
41898;BME280;27576;53.366;-1.498;2024-01-25T04:10:30;101107.88;;;3.84;100.00
41898;BME280;27576;53.366;-1.498;2024-01-25T04:12:55;101095.72;;;3.80;100.00
41898;BME280;27576;53.366;-1.498;2024-01-25T04:15:21;101145.09;;;4.10;100.00
41898;BME280;27576;53.366;-1.498;2024-01-25T04:17:46;101116.06;;;3.93;100.00
41898;BME280;27576;53.366;-1.498;2024-01-25T04:20:12;101117.81;;;3.94;100.00
41898;BME280;27576;53.366;-1.498;2024-01-25T04:22:37;101124.47;;;3.90;100.00
41898;BME280;27576;53.366;-1.498;2024-01-25T04:25:03;101144.88;;;4.05;100.00
41898;BME280;27576;53.366;-1.498;2024-01-25T04:27:29;101107.59;;;3.78;100.00
41898;BME280;27576;53.366;-1.498;2024-01-25T04:29:55;101087.13;;;3.79;100.00
41898;BME280;27576;53.366;-1.498;2024-01-25T04:32:20;101090.75;;;3.83;100.00
41898;BME280;27576;53.366;-1.498;2024-01-25T04:34:46;101097.84;;;3.88;100.00
41898;BME280;27576;53.366;-1.498;2024-01-25T04:37:13;101061.06;;;3.70;100.00
41898;BME280;27576;53.366;-1.498;2024-01-25T04:39:40;101094.50;;;3.89;100.00
41898;BME280;27576;53.366;-1.498;2024-01-25T04:42:05;101086.50;;;3.83;100.00
41898;BME280;27576;53.366;-1.498;2024-01-25T04:44:31;101068.88;;;3.73;100.00
41898;BME280;27576;53.366;-1.498;2024-01-25T04:46:56;101080.25;;;3.78;100.00
41898;BME280;27576;53.366;-1.498;2024-01-25T04:49:23;101057.69;;;3.71;100.00
41898;BME280;27576;53.366;-1.498;2024-01-25T04:51:49;101089.28;;;3.88;100.00
41898;BME280;27576;53.366;-1.498;2024-01-25T04:54:15;101045.66;;;3.70;100.00
41898;BME280;27576;53.366;-1.498;2024-01-25T04:56:41;101075.41;;;3.84;100.00
41898;BME280;27576;53.366;-1.498;2024-01-25T04:59:07;101072.78;;;3.83;100.00
41898;BME280;27576;53.366;-1.498;2024-01-25T05:01:32;101027.25;;;3.61;100.00
41898;BME280;27576;53.366;-1.498;2024-01-25T05:03:57;101087.03;;;3.94;100.00
41898;BME280;27576;53.366;-1.498;2024-01-25T05:06:23;101031.50;;;3.60;100.00
41898;BME280;27576;53.366;-1.498;2024-01-25T05:08:48;101062.59;;;3.84;100.00
41898;BME280;27576;53.366;-1.498;2024-01-25T05:11:15;101036.19;;;3.69;100.00
41898;BME280;27576;53.366;-1.498;2024-01-25T05:13:40;101036.28;;;3.71;100.00
41898;BME280;27576;53.366;-1.498;2024-01-25T05:16:06;101015.47;;;3.64;100.00
41898;BME280;27576;53.366;-1.498;2024-01-25T05:18:31;101019.16;;;3.69;100.00
41898;BME280;27576;53.366;-1.498;2024-01-25T05:20:56;101037.63;;;3.80;100.00
41898;BME280;27576;53.366;-1.498;2024-01-25T05:23:23;101020.03;;;3.70;100.00
41898;BME280;27576;53.366;-1.498;2024-01-25T05:25:48;101071.00;;;3.98;100.00
41898;BME280;27576;53.366;-1.498;2024-01-25T05:28:14;101071.00;;;3.98;100.00
41898;BME280;27576;53.366;-1.498;2024-01-25T05:30:39;101048.47;;;3.92;100.00
41898;BME280;27576;53.366;-1.498;2024-01-25T05:33:04;101028.34;;;3.82;100.00
41898;BME280;27576;53.366;-1.498;2024-01-25T05:35:30;101018.91;;;3.81;100.00
41898;BME280;27576;53.366;-1.498;2024-01-25T05:37:55;101025.19;;;3.88;100.00
41898;BME280;27576;53.366;-1.498;2024-01-25T05:40:21;101019.34;;;3.90;100.00
41898;BME280;27576;53.366;-1.498;2024-01-25T05:42:47;101052.78;;;4.10;100.00
41898;BME280;27576;53.366;-1.498;2024-01-25T05:45:13;101023.31;;;4.02;100.00
41898;BME280;27576;53.366;-1.498;2024-01-25T05:47:38;101042.69;;;4.13;100.00
41898;BME280;27576;53.366;-1.498;2024-01-25T05:50:04;101027.13;;;4.10;100.00
41898;BME280;27576;53.366;-1.498;2024-01-25T05:52:30;100994.78;;;3.96;100.00
41898;BME280;27576;53.366;-1.498;2024-01-25T05:54:56;100979.03;;;3.88;100.00
41898;BME280;27576;53.366;-1.498;2024-01-25T05:57:21;100979.13;;;3.89;100.00
41898;BME280;27576;53.366;-1.498;2024-01-25T05:59:46;101005.66;;;4.08;100.00
41898;BME280;27576;53.366;-1.498;2024-01-25T06:02:13;101019.50;;;4.11;100.00
41898;BME280;27576;53.366;-1.498;2024-01-25T06:04:38;100995.81;;;3.99;100.00
41898;BME280;27576;53.366;-1.498;2024-01-25T06:07:04;101013.19;;;4.05;100.00
41898;BME280;27576;53.366;-1.498;2024-01-25T06:09:29;101013.84;;;4.01;100.00
41898;BME280;27576;53.366;-1.498;2024-01-25T06:11:57;101030.72;;;4.13;100.00
41898;BME280;27576;53.366;-1.498;2024-01-25T06:14:22;101022.16;;;4.13;100.00
41898;BME280;27576;53.366;-1.498;2024-01-25T06:16:47;101002.16;;;4.06;100.00
41898;BME280;27576;53.366;-1.498;2024-01-25T06:19:13;101001.94;;;4.01;100.00
41898;BME280;27576;53.366;-1.498;2024-01-25T06:21:38;100993.97;;;3.97;100.00
41898;BME280;27576;53.366;-1.498;2024-01-25T06:24:04;101017.03;;;4.13;100.00
41898;BME280;27576;53.366;-1.498;2024-01-25T06:26:30;100973.25;;;3.92;100.00
41898;BME280;27576;53.366;-1.498;2024-01-25T06:28:56;100961.19;;;3.89;100.00
41898;BME280;27576;53.366;-1.498;2024-01-25T06:31:25;100995.59;;;4.12;100.00
41898;BME280;27576;53.366;-1.498;2024-01-25T06:33:50;100963.00;;;3.92;100.00
41898;BME280;27576;53.366;-1.498;2024-01-25T06:36:18;100941.25;;;3.84;100.00
41898;BME280;27576;53.366;-1.498;2024-01-25T06:38:43;100968.81;;;4.06;100.00
41898;BME280;27576;53.366;-1.498;2024-01-25T06:41:09;100949.63;;;3.98;100.00
41898;BME280;27576;53.366;-1.498;2024-01-25T06:43:34;100965.50;;;4.08;100.00
41898;BME280;27576;53.366;-1.498;2024-01-25T06:46:00;100950.19;;;4.10;100.00
41898;BME280;27576;53.366;-1.498;2024-01-25T06:48:25;100925.28;;;3.89;100.00
41898;BME280;27576;53.366;-1.498;2024-01-25T06:50:50;100914.13;;;3.89;100.00
41898;BME280;27576;53.366;-1.498;2024-01-25T06:53:16;100947.69;;;4.11;100.00
41898;BME280;27576;53.366;-1.498;2024-01-25T06:55:42;100953.91;;;4.16;100.00
41898;BME280;27576;53.366;-1.498;2024-01-25T06:58:07;100957.81;;;4.26;100.00
41898;BME280;27576;53.366;-1.498;2024-01-25T07:00:33;100928.72;;;4.08;100.00
41898;BME280;27576;53.366;-1.498;2024-01-25T07:02:58;100957.19;;;4.32;100.00
41898;BME280;27576;53.366;-1.498;2024-01-25T07:05:24;100902.28;;;4.09;100.00
41898;BME280;27576;53.366;-1.498;2024-01-25T07:07:49;100935.78;;;4.31;100.00
41898;BME280;27576;53.366;-1.498;2024-01-25T07:10:15;100881.16;;;4.14;100.00
41898;BME280;27576;53.366;-1.498;2024-01-25T07:12:40;100924.09;;;4.36;100.00
41898;BME280;27576;53.366;-1.498;2024-01-25T07:15:06;100908.53;;;4.33;100.00
41898;BME280;27576;53.366;-1.498;2024-01-25T07:17:32;100917.59;;;4.45;100.00
41898;BME280;27576;53.366;-1.498;2024-01-25T07:19:57;100932.53;;;4.53;100.00
41898;BME280;27576;53.366;-1.498;2024-01-25T07:22:23;100886.03;;;4.28;100.00
41898;BME280;27576;53.366;-1.498;2024-01-25T07:24:48;100912.69;;;4.49;100.00
41898;BME280;27576;53.366;-1.498;2024-01-25T07:27:14;100901.44;;;4.47;100.00
41898;BME280;27576;53.366;-1.498;2024-01-25T07:29:39;100920.78;;;4.58;100.00
41898;BME280;27576;53.366;-1.498;2024-01-25T07:32:05;100882.88;;;4.33;100.00
41898;BME280;27576;53.366;-1.498;2024-01-25T07:34:30;100885.66;;;4.38;100.00
41898;BME280;27576;53.366;-1.498;2024-01-25T07:36:56;100893.84;;;4.49;100.00
41898;BME280;27576;53.366;-1.498;2024-01-25T07:39:21;100897.47;;;4.54;100.00
41898;BME280;27576;53.366;-1.498;2024-01-25T07:41:47;100910.81;;;4.64;100.00
41898;BME280;27576;53.366;-1.498;2024-01-25T07:44:13;100872.28;;;4.45;100.00
41898;BME280;27576;53.366;-1.498;2024-01-25T07:46:38;100867.06;;;4.43;100.00
41898;BME280;27576;53.366;-1.498;2024-01-25T07:49:04;100884.19;;;4.62;100.00
41898;BME280;27576;53.366;-1.498;2024-01-25T07:51:30;100872.63;;;4.53;100.00
41898;BME280;27576;53.366;-1.498;2024-01-25T07:53:55;100887.03;;;4.68;100.00
41898;BME280;27576;53.366;-1.498;2024-01-25T07:56:21;100881.91;;;4.68;100.00
41898;BME280;27576;53.366;-1.498;2024-01-25T07:58:48;100853.91;;;4.55;100.00
41898;BME280;27576;53.366;-1.498;2024-01-25T08:01:17;100846.78;;;4.48;100.00
41898;BME280;27576;53.366;-1.498;2024-01-25T08:03:42;100835.59;;;4.48;100.00
41898;BME280;27576;53.366;-1.498;2024-01-25T08:06:08;100837.44;;;4.50;100.00
41898;BME280;27576;53.366;-1.498;2024-01-25T08:08:33;100853.19;;;4.58;100.00
41898;BME280;27576;53.366;-1.498;2024-01-25T08:10:59;100807.81;;;4.37;100.00
41898;BME280;27576;53.366;-1.498;2024-01-25T08:13:24;100826.44;;;4.53;100.00
41898;BME280;27576;53.366;-1.498;2024-01-25T08:15:50;100844.53;;;4.56;100.00
41898;BME280;27576;53.366;-1.498;2024-01-25T08:18:16;100830.75;;;4.54;100.00
41898;BME280;27576;53.366;-1.498;2024-01-25T08:20:44;100836.81;;;4.56;100.00
41898;BME280;27576;53.366;-1.498;2024-01-25T08:23:09;100794.16;;;4.38;100.00
41898;BME280;27576;53.366;-1.498;2024-01-25T08:25:35;100808.06;;;4.43;100.00
41898;BME280;27576;53.366;-1.498;2024-01-25T08:28:00;100862.56;;;4.77;100.00
41898;BME280;27576;53.366;-1.498;2024-01-25T08:30:27;100826.84;;;4.62;100.00
41898;BME280;27576;53.366;-1.498;2024-01-25T08:32:52;100730.47;;;4.09;100.00
41898;BME280;27576;53.366;-1.498;2024-01-25T08:35:18;100850.75;;;4.80;100.00
41898;BME280;27576;53.366;-1.498;2024-01-25T08:37:43;100852.63;;;4.84;100.00
41898;BME280;27576;53.366;-1.498;2024-01-25T08:40:09;100835.19;;;4.77;100.00
41898;BME280;27576;53.366;-1.498;2024-01-25T08:42:35;100836.81;;;4.75;100.00
41898;BME280;27576;53.366;-1.498;2024-01-25T08:45:01;100822.91;;;4.70;100.00
41898;BME280;27576;53.366;-1.498;2024-01-25T08:47:27;100860.66;;;4.92;100.00
41898;BME280;27576;53.366;-1.498;2024-01-25T08:49:52;100839.78;;;4.84;100.00
41898;BME280;27576;53.366;-1.498;2024-01-25T08:52:17;100823.03;;;4.73;100.00
41898;BME280;27576;53.366;-1.498;2024-01-25T08:54:43;100841.03;;;4.94;100.00
41898;BME280;27576;53.366;-1.498;2024-01-25T08:57:08;100811.41;;;4.81;100.00
41898;BME280;27576;53.366;-1.498;2024-01-25T08:59:37;100795.13;;;4.81;100.00
41898;BME280;27576;53.366;-1.498;2024-01-25T09:02:05;100809.41;;;4.95;100.00
41898;BME280;27576;53.366;-1.498;2024-01-25T09:04:31;100805.28;;;4.99;100.00
41898;BME280;27576;53.366;-1.498;2024-01-25T09:06:57;100823.16;;;5.16;100.00
41898;BME280;27576;53.366;-1.498;2024-01-25T09:09:22;100815.19;;;5.10;100.00
41898;BME280;27576;53.366;-1.498;2024-01-25T09:11:48;100748.28;;;4.86;100.00
41898;BME280;27576;53.366;-1.498;2024-01-25T09:14:13;100782.47;;;5.06;100.00
41898;BME280;27576;53.366;-1.498;2024-01-25T09:16:39;100772.41;;;5.11;100.00
41898;BME280;27576;53.366;-1.498;2024-01-25T09:19:04;100737.03;;;5.04;100.00
41898;BME280;27576;53.366;-1.498;2024-01-25T09:21:30;100803.84;;;5.47;100.00
41898;BME280;27576;53.366;-1.498;2024-01-25T09:23:56;100802.38;;;5.54;100.00
41898;BME280;27576;53.366;-1.498;2024-01-25T09:26:21;100762.53;;;5.43;100.00
41898;BME280;27576;53.366;-1.498;2024-01-25T09:28:46;100766.03;;;5.45;100.00
41898;BME280;27576;53.366;-1.498;2024-01-25T09:31:12;100777.88;;;5.62;100.00
41898;BME280;27576;53.366;-1.498;2024-01-25T09:33:37;100756.22;;;5.57;100.00
41898;BME280;27576;53.366;-1.498;2024-01-25T09:36:03;100747.59;;;5.55;100.00
41898;BME280;27576;53.366;-1.498;2024-01-25T09:38:29;100749.59;;;5.62;100.00
41898;BME280;27576;53.366;-1.498;2024-01-25T09:40:56;100778.50;;;5.79;100.00
41898;BME280;27576;53.366;-1.498;2024-01-25T09:43:21;100783.22;;;5.90;100.00
41898;BME280;27576;53.366;-1.498;2024-01-25T09:45:53;100760.56;;;5.80;100.00
41898;BME280;27576;53.366;-1.498;2024-01-25T09:48:22;100790.59;;;6.04;100.00
41898;BME280;27576;53.366;-1.498;2024-01-25T09:50:47;100788.28;;;6.10;100.00
41898;BME280;27576;53.366;-1.498;2024-01-25T09:53:23;100791.06;;;6.16;100.00
41898;BME280;27576;53.366;-1.498;2024-01-25T09:55:57;100744.84;;;5.95;100.00
41898;BME280;27576;53.366;-1.498;2024-01-25T09:58:41;100742.31;;;5.97;100.00
41898;BME280;27576;53.366;-1.498;2024-01-25T10:01:09;100782.03;;;6.27;100.00
41898;BME280;27576;53.366;-1.498;2024-01-25T10:03:47;100780.22;;;6.25;100.00
41898;BME280;27576;53.366;-1.498;2024-01-25T10:06:13;100774.16;;;6.23;100.00
41898;BME280;27576;53.366;-1.498;2024-01-25T10:08:39;100748.25;;;6.18;100.00
41898;BME280;27576;53.366;-1.498;2024-01-25T10:11:05;100766.56;;;6.26;100.00
41898;BME280;27576;53.366;-1.498;2024-01-25T10:13:31;100760.72;;;6.31;100.00
41898;BME280;27576;53.366;-1.498;2024-01-25T10:15:57;100755.81;;;6.37;100.00
41898;BME280;27576;53.366;-1.498;2024-01-25T10:18:23;100725.22;;;6.21;100.00
41898;BME280;27576;53.366;-1.498;2024-01-25T10:20:48;100706.97;;;6.15;100.00
41898;BME280;27576;53.366;-1.498;2024-01-25T10:23:14;100749.16;;;6.44;100.00
41898;BME280;27576;53.366;-1.498;2024-01-25T10:25:39;100740.25;;;6.34;100.00
41898;BME280;27576;53.366;-1.498;2024-01-25T10:28:05;100769.00;;;6.47;100.00
41898;BME280;27576;53.366;-1.498;2024-01-25T10:30:33;100762.22;;;6.49;100.00
41898;BME280;27576;53.366;-1.498;2024-01-25T10:33:00;100769.22;;;6.53;100.00
41898;BME280;27576;53.366;-1.498;2024-01-25T10:35:26;100738.59;;;6.36;100.00
41898;BME280;27576;53.366;-1.498;2024-01-25T10:37:52;100758.84;;;6.51;100.00
41898;BME280;27576;53.366;-1.498;2024-01-25T10:40:19;100753.72;;;6.51;100.00
41898;BME280;27576;53.366;-1.498;2024-01-25T10:42:44;100734.66;;;6.46;100.00
41898;BME280;27576;53.366;-1.498;2024-01-25T10:45:10;100748.22;;;6.66;100.00
41898;BME280;27576;53.366;-1.498;2024-01-25T10:47:36;100722.88;;;6.53;100.00
41898;BME280;27576;53.366;-1.498;2024-01-25T10:50:03;100736.06;;;6.62;100.00
41898;BME280;27576;53.366;-1.498;2024-01-25T10:52:30;100756.31;;;6.77;100.00
41898;BME280;27576;53.366;-1.498;2024-01-25T10:54:57;100731.13;;;6.68;100.00
41898;BME280;27576;53.366;-1.498;2024-01-25T10:57:23;100681.63;;;6.51;100.00
41898;BME280;27576;53.366;-1.498;2024-01-25T10:59:49;100702.25;;;6.78;100.00
41898;BME280;27576;53.366;-1.498;2024-01-25T11:02:14;100720.06;;;6.98;100.00
41898;BME280;27576;53.366;-1.498;2024-01-25T11:04:53;100698.19;;;6.85;100.00
41898;BME280;27576;53.366;-1.498;2024-01-25T11:07:18;100682.53;;;6.79;100.00
41898;BME280;27576;53.366;-1.498;2024-01-25T11:09:45;100709.97;;;7.04;100.00
41898;BME280;27576;53.366;-1.498;2024-01-25T11:12:13;100701.41;;;7.05;100.00
41898;BME280;27576;53.366;-1.498;2024-01-25T11:14:39;100685.94;;;7.05;100.00
41898;BME280;27576;53.366;-1.498;2024-01-25T11:17:21;100723.66;;;7.30;100.00
41898;BME280;27576;53.366;-1.498;2024-01-25T11:19:48;100723.00;;;7.35;100.00
41898;BME280;27576;53.366;-1.498;2024-01-25T11:22:15;100668.09;;;7.11;100.00
41898;BME280;27576;53.366;-1.498;2024-01-25T11:24:40;100675.28;;;7.21;100.00
41898;BME280;27576;53.366;-1.498;2024-01-25T11:27:08;100696.38;;;7.36;100.00
41898;BME280;27576;53.366;-1.498;2024-01-25T11:29:35;100676.66;;;7.38;100.00
41898;BME280;27576;53.366;-1.498;2024-01-25T11:32:00;100696.19;;;7.59;100.00
41898;BME280;27576;53.366;-1.498;2024-01-25T11:34:25;100684.31;;;7.64;100.00
41898;BME280;27576;53.366;-1.498;2024-01-25T11:36:51;100644.28;;;7.47;100.00
41898;BME280;27576;53.366;-1.498;2024-01-25T11:39:16;100649.59;;;7.53;100.00
41898;BME280;27576;53.366;-1.498;2024-01-25T11:41:45;100664.72;;;7.71;100.00
41898;BME280;27576;53.366;-1.498;2024-01-25T11:44:13;100623.03;;;7.55;100.00
41898;BME280;27576;53.366;-1.498;2024-01-25T11:46:39;100638.13;;;7.73;100.00
41898;BME280;27576;53.366;-1.498;2024-01-25T11:49:04;100621.78;;;7.73;100.00
41898;BME280;27576;53.366;-1.498;2024-01-25T11:51:32;100634.25;;;7.89;100.00
41898;BME280;27576;53.366;-1.498;2024-01-25T11:53:57;100635.41;;;7.99;100.00
41898;BME280;27576;53.366;-1.498;2024-01-25T11:56:28;100617.03;;;7.88;100.00
41898;BME280;27576;53.366;-1.498;2024-01-25T11:58:55;100623.16;;;7.92;100.00
41898;BME280;27576;53.366;-1.498;2024-01-25T12:01:24;100649.47;;;8.10;100.00
41898;BME280;27576;53.366;-1.498;2024-01-25T12:03:50;100616.72;;;8.09;100.00
41898;BME280;27576;53.366;-1.498;2024-01-25T12:06:17;100632.47;;;8.18;100.00
41898;BME280;27576;53.366;-1.498;2024-01-25T12:08:42;100620.56;;;8.23;100.00
41898;BME280;27576;53.366;-1.498;2024-01-25T12:11:09;100613.75;;;8.27;100.00
41898;BME280;27576;53.366;-1.498;2024-01-25T12:13:35;100619.88;;;8.30;100.00
41898;BME280;27576;53.366;-1.498;2024-01-25T12:16:02;100594.75;;;8.25;100.00
41898;BME280;27576;53.366;-1.498;2024-01-25T12:18:28;100618.41;;;8.39;100.00
41898;BME280;27576;53.366;-1.498;2024-01-25T12:20:57;100584.50;;;8.26;100.00
41898;BME280;27576;53.366;-1.498;2024-01-25T12:23:22;100597.50;;;8.31;100.00
41898;BME280;27576;53.366;-1.498;2024-01-25T12:25:48;100595.16;;;8.39;100.00
41898;BME280;27576;53.366;-1.498;2024-01-25T12:28:13;100612.59;;;8.49;100.00
41898;BME280;27576;53.366;-1.498;2024-01-25T12:30:39;100587.44;;;8.40;100.00
41898;BME280;27576;53.366;-1.498;2024-01-25T12:33:04;100569.13;;;8.31;100.00
41898;BME280;27576;53.366;-1.498;2024-01-25T12:35:29;100594.53;;;8.49;100.00